sensor_id;sensor_type;location;lat;lon;timestamp;pressure;altitude;pressure_sealevel;temperature;humidity
10470;BME280;5282;47.052;15.458;2023-04-07T00:01:33;97474.72;;;2.57;65.14
10470;BME280;5282;47.052;15.458;2023-04-07T00:04:00;97478.91;;;2.48;63.96
10470;BME280;5282;47.052;15.458;2023-04-07T00:06:27;97477.59;;;2.54;64.24
10470;BME280;5282;47.052;15.458;2023-04-07T00:08:53;97476.13;;;2.50;63.72
10470;BME280;5282;47.052;15.458;2023-04-07T00:11:22;97473.00;;;2.44;64.49
10470;BME280;5282;47.052;15.458;2023-04-07T00:13:49;97473.94;;;2.32;66.20
10470;BME280;5282;47.052;15.458;2023-04-07T00:16:16;97477.97;;;1.78;73.60
10470;BME280;5282;47.052;15.458;2023-04-07T00:18:43;97473.56;;;1.90;71.34
10470;BME280;5282;47.052;15.458;2023-04-07T00:21:09;97478.75;;;1.67;77.45
10470;BME280;5282;47.052;15.458;2023-04-07T00:23:36;97472.41;;;2.05;72.53
10470;BME280;5282;47.052;15.458;2023-04-07T00:26:06;97467.88;;;1.83;73.54
10470;BME280;5282;47.052;15.458;2023-04-07T00:28:34;97468.59;;;1.61;79.43
10470;BME280;5282;47.052;15.458;2023-04-07T00:31:01;97460.56;;;1.98;74.63
10470;BME280;5282;47.052;15.458;2023-04-07T00:33:28;97465.72;;;1.64;76.40
10470;BME280;5282;47.052;15.458;2023-04-07T00:35:55;97459.56;;;1.88;75.44
10470;BME280;5282;47.052;15.458;2023-04-07T00:38:23;97461.78;;;2.05;73.09
10470;BME280;5282;47.052;15.458;2023-04-07T00:40:56;97464.66;;;1.66;76.63
10470;BME280;5282;47.052;15.458;2023-04-07T00:43:23;97448.81;;;1.89;74.44
10470;BME280;5282;47.052;15.458;2023-04-07T00:45:51;97451.09;;;1.82;76.86
10470;BME280;5282;47.052;15.458;2023-04-07T00:48:19;97467.44;;;1.65;80.36
10470;BME280;5282;47.052;15.458;2023-04-07T00:50:47;97457.44;;;2.04;76.88
10470;BME280;5282;47.052;15.458;2023-04-07T00:53:14;97460.88;;;1.82;73.68
10470;BME280;5282;47.052;15.458;2023-04-07T00:55:42;97453.38;;;1.87;75.17
10470;BME280;5282;47.052;15.458;2023-04-07T00:58:08;97446.03;;;1.91;73.35
10470;BME280;5282;47.052;15.458;2023-04-07T01:00:41;97449.78;;;1.88;74.28
10470;BME280;5282;47.052;15.458;2023-04-07T01:03:17;97444.31;;;1.78;74.00
10470;BME280;5282;47.052;15.458;2023-04-07T01:05:49;97437.75;;;1.71;74.22
10470;BME280;5282;47.052;15.458;2023-04-07T01:08:20;97438.63;;;1.72;74.08
10470;BME280;5282;47.052;15.458;2023-04-07T01:10:53;97435.38;;;1.79;70.84
10470;BME280;5282;47.052;15.458;2023-04-07T01:13:26;97431.19;;;1.88;69.87
10470;BME280;5282;47.052;15.458;2023-04-07T01:15:54;97435.69;;;1.99;70.70
10470;BME280;5282;47.052;15.458;2023-04-07T01:18:29;97442.22;;;2.06;68.91
10470;BME280;5282;47.052;15.458;2023-04-07T01:21:01;97446.44;;;2.09;68.82
10470;BME280;5282;47.052;15.458;2023-04-07T01:23:46;97442.09;;;1.72;70.35
10470;BME280;5282;47.052;15.458;2023-04-07T01:26:18;97435.88;;;1.84;71.03
10470;BME280;5282;47.052;15.458;2023-04-07T01:29:02;97441.22;;;1.60;72.08
10470;BME280;5282;47.052;15.458;2023-04-07T01:31:36;97436.03;;;1.34;81.39
10470;BME280;5282;47.052;15.458;2023-04-07T01:34:05;97431.66;;;1.58;78.56
10470;BME280;5282;47.052;15.458;2023-04-07T01:36:35;97431.84;;;1.67;76.30
10470;BME280;5282;47.052;15.458;2023-04-07T01:39:02;97429.78;;;1.71;75.60
10470;BME280;5282;47.052;15.458;2023-04-07T01:41:30;97428.56;;;1.64;77.11
10470;BME280;5282;47.052;15.458;2023-04-07T01:43:59;97425.34;;;1.47;78.06
10470;BME280;5282;47.052;15.458;2023-04-07T01:46:28;97429.25;;;1.30;82.12
10470;BME280;5282;47.052;15.458;2023-04-07T01:48:56;97425.69;;;1.18;83.19
10470;BME280;5282;47.052;15.458;2023-04-07T01:51:29;97431.28;;;1.27;80.95
10470;BME280;5282;47.052;15.458;2023-04-07T01:53:58;97427.78;;;1.50;79.81
10470;BME280;5282;47.052;15.458;2023-04-07T01:56:27;97429.75;;;1.35;78.92
10470;BME280;5282;47.052;15.458;2023-04-07T01:58:54;97426.59;;;1.30;81.14
10470;BME280;5282;47.052;15.458;2023-04-07T02:01:21;97422.41;;;1.63;80.84
10470;BME280;5282;47.052;15.458;2023-04-07T02:03:51;97420.31;;;1.56;79.28
10470;BME280;5282;47.052;15.458;2023-04-07T02:06:26;97418.69;;;1.17;87.04
10470;BME280;5282;47.052;15.458;2023-04-07T02:09:00;97423.16;;;1.41;83.95
10470;BME280;5282;47.052;15.458;2023-04-07T02:11:28;97412.00;;;1.49;82.95
10470;BME280;5282;47.052;15.458;2023-04-07T02:14:00;97416.22;;;1.51;81.27
10470;BME280;5282;47.052;15.458;2023-04-07T02:16:28;97412.00;;;1.49;81.88
10470;BME280;5282;47.052;15.458;2023-04-07T02:18:56;97414.81;;;1.34;82.65
10470;BME280;5282;47.052;15.458;2023-04-07T02:21:26;97415.47;;;1.25;87.60
10470;BME280;5282;47.052;15.458;2023-04-07T02:23:55;97411.19;;;1.35;85.78
10470;BME280;5282;47.052;15.458;2023-04-07T02:26:22;97416.47;;;1.11;88.53
10470;BME280;5282;47.052;15.458;2023-04-07T02:28:49;97414.19;;;1.31;86.64
10470;BME280;5282;47.052;15.458;2023-04-07T02:31:16;97420.72;;;1.38;86.40
10470;BME280;5282;47.052;15.458;2023-04-07T02:33:43;97413.16;;;1.45;87.40
10470;BME280;5282;47.052;15.458;2023-04-07T02:36:13;97416.94;;;1.29;88.89
10470;BME280;5282;47.052;15.458;2023-04-07T02:38:42;97416.69;;;0.71;99.49
10470;BME280;5282;47.052;15.458;2023-04-07T02:41:09;97415.09;;;1.05;92.97
10470;BME280;5282;47.052;15.458;2023-04-07T02:43:35;97418.00;;;1.27;90.75
10470;BME280;5282;47.052;15.458;2023-04-07T02:46:05;97419.94;;;1.25;90.40
10470;BME280;5282;47.052;15.458;2023-04-07T02:48:32;97416.50;;;1.35;91.05
10470;BME280;5282;47.052;15.458;2023-04-07T02:50:58;97421.84;;;1.22;89.84
10470;BME280;5282;47.052;15.458;2023-04-07T02:53:25;97414.06;;;1.32;89.47
10470;BME280;5282;47.052;15.458;2023-04-07T02:55:54;97411.19;;;1.35;87.81
10470;BME280;5282;47.052;15.458;2023-04-07T02:58:21;97408.56;;;1.22;89.22
10470;BME280;5282;47.052;15.458;2023-04-07T03:00:48;97405.44;;;1.04;93.76
10470;BME280;5282;47.052;15.458;2023-04-07T03:03:16;97398.75;;;1.36;89.72
10470;BME280;5282;47.052;15.458;2023-04-07T03:05:48;97405.16;;;1.09;95.94
10470;BME280;5282;47.052;15.458;2023-04-07T03:08:17;97402.09;;;1.27;92.99
10470;BME280;5282;47.052;15.458;2023-04-07T03:10:45;97390.81;;;1.36;91.12
10470;BME280;5282;47.052;15.458;2023-04-07T03:13:15;97392.06;;;1.43;89.71
10470;BME280;5282;47.052;15.458;2023-04-07T03:15:50;97389.69;;;1.51;89.70
10470;BME280;5282;47.052;15.458;2023-04-07T03:18:19;97392.69;;;1.47;90.93
10470;BME280;5282;47.052;15.458;2023-04-07T03:20:47;97392.66;;;1.22;91.35
10470;BME280;5282;47.052;15.458;2023-04-07T03:23:17;97382.78;;;1.25;94.23
10470;BME280;5282;47.052;15.458;2023-04-07T03:25:47;97377.88;;;1.07;96.73
10470;BME280;5282;47.052;15.458;2023-04-07T03:28:19;97376.19;;;1.30;96.29
10470;BME280;5282;47.052;15.458;2023-04-07T03:30:50;97378.16;;;1.39;96.25
10470;BME280;5282;47.052;15.458;2023-04-07T03:33:20;97376.13;;;1.43;93.16
10470;BME280;5282;47.052;15.458;2023-04-07T03:35:47;97383.03;;;1.46;91.03
10470;BME280;5282;47.052;15.458;2023-04-07T03:38:14;97372.56;;;1.31;94.32
10470;BME280;5282;47.052;15.458;2023-04-07T03:40:41;97381.78;;;1.14;100.00
10470;BME280;5282;47.052;15.458;2023-04-07T03:43:08;97374.16;;;1.34;98.29
10470;BME280;5282;47.052;15.458;2023-04-07T03:45:40;97372.00;;;1.39;96.63
10470;BME280;5282;47.052;15.458;2023-04-07T03:48:07;97363.13;;;1.27;99.14
10470;BME280;5282;47.052;15.458;2023-04-07T03:50:38;97362.53;;;1.23;99.60
10470;BME280;5282;47.052;15.458;2023-04-07T03:53:05;97372.97;;;1.38;98.19
10470;BME280;5282;47.052;15.458;2023-04-07T03:55:32;97366.84;;;1.37;95.20
10470;BME280;5282;47.052;15.458;2023-04-07T03:58:00;97376.97;;;1.44;96.95
10470;BME280;5282;47.052;15.458;2023-04-07T04:00:27;97372.53;;;1.56;95.57
10470;BME280;5282;47.052;15.458;2023-04-07T04:02:57;97374.88;;;1.36;97.80
10470;BME280;5282;47.052;15.458;2023-04-07T04:05:24;97373.16;;;1.48;97.38
10470;BME280;5282;47.052;15.458;2023-04-07T04:07:52;97375.59;;;1.62;95.22
10470;BME280;5282;47.052;15.458;2023-04-07T04:10:19;97375.84;;;1.35;97.64
10470;BME280;5282;47.052;15.458;2023-04-07T04:12:46;97374.94;;;1.47;95.04
10470;BME280;5282;47.052;15.458;2023-04-07T04:15:14;97374.19;;;1.45;96.64
10470;BME280;5282;47.052;15.458;2023-04-07T04:17:41;97380.25;;;1.47;96.03
10470;BME280;5282;47.052;15.458;2023-04-07T04:20:10;97375.59;;;1.62;94.89
10470;BME280;5282;47.052;15.458;2023-04-07T04:22:38;97371.75;;;1.66;92.63
10470;BME280;5282;47.052;15.458;2023-04-07T04:25:08;97374.88;;;1.36;95.89
10470;BME280;5282;47.052;15.458;2023-04-07T04:27:35;97378.44;;;1.48;97.10
10470;BME280;5282;47.052;15.458;2023-04-07T04:30:03;97382.50;;;1.65;96.08
10470;BME280;5282;47.052;15.458;2023-04-07T04:32:30;97385.19;;;1.76;94.12
10470;BME280;5282;47.052;15.458;2023-04-07T04:34:57;97380.22;;;1.72;94.35
10470;BME280;5282;47.052;15.458;2023-04-07T04:37:28;97386.84;;;1.66;95.78
10470;BME280;5282;47.052;15.458;2023-04-07T04:39:55;97379.84;;;1.65;93.79
10470;BME280;5282;47.052;15.458;2023-04-07T04:42:22;97384.06;;;1.67;91.51
10470;BME280;5282;47.052;15.458;2023-04-07T04:44:50;97385.75;;;1.68;91.42
10470;BME280;5282;47.052;15.458;2023-04-07T04:47:17;97379.59;;;1.68;91.66
10470;BME280;5282;47.052;15.458;2023-04-07T04:49:45;97379.63;;;1.79;90.00
10470;BME280;5282;47.052;15.458;2023-04-07T04:52:12;97383.75;;;1.83;90.15
10470;BME280;5282;47.052;15.458;2023-04-07T04:54:40;97384.59;;;1.84;89.59
10470;BME280;5282;47.052;15.458;2023-04-07T04:57:07;97381.81;;;1.85;88.39
10470;BME280;5282;47.052;15.458;2023-04-07T04:59:34;97384.47;;;1.85;88.11
10470;BME280;5282;47.052;15.458;2023-04-07T05:02:00;97384.88;;;1.92;89.40
10470;BME280;5282;47.052;15.458;2023-04-07T05:04:27;97387.16;;;1.97;91.07
10470;BME280;5282;47.052;15.458;2023-04-07T05:06:54;97381.13;;;1.95;89.73
10470;BME280;5282;47.052;15.458;2023-04-07T05:09:21;97389.47;;;2.02;89.03
10470;BME280;5282;47.052;15.458;2023-04-07T05:11:50;97395.25;;;1.95;90.60
10470;BME280;5282;47.052;15.458;2023-04-07T05:14:17;97389.09;;;1.95;91.46
10470;BME280;5282;47.052;15.458;2023-04-07T05:16:43;97397.28;;;1.92;92.89
10470;BME280;5282;47.052;15.458;2023-04-07T05:19:12;97398.19;;;1.79;94.65
10470;BME280;5282;47.052;15.458;2023-04-07T05:21:39;97408.28;;;1.63;95.70
10470;BME280;5282;47.052;15.458;2023-04-07T05:24:06;97394.59;;;1.80;93.99
10470;BME280;5282;47.052;15.458;2023-04-07T05:26:33;97388.50;;;2.03;91.36
10470;BME280;5282;47.052;15.458;2023-04-07T05:29:04;97397.09;;;2.18;88.16
10470;BME280;5282;47.052;15.458;2023-04-07T05:31:31;97401.31;;;2.20;88.15
10470;BME280;5282;47.052;15.458;2023-04-07T05:34:00;97393.69;;;2.04;89.51
10470;BME280;5282;47.052;15.458;2023-04-07T05:36:27;97379.84;;;2.23;88.59
10470;BME280;5282;47.052;15.458;2023-04-07T05:38:54;97397.69;;;2.10;89.18
10470;BME280;5282;47.052;15.458;2023-04-07T05:41:21;97408.16;;;1.89;93.77
10470;BME280;5282;47.052;15.458;2023-04-07T05:43:48;97403.94;;;2.09;90.84
10470;BME280;5282;47.052;15.458;2023-04-07T05:46:16;97395.19;;;2.31;87.00
10470;BME280;5282;47.052;15.458;2023-04-07T05:48:43;97390.59;;;2.33;86.65
10470;BME280;5282;47.052;15.458;2023-04-07T05:51:10;97393.47;;;2.19;89.17
10470;BME280;5282;47.052;15.458;2023-04-07T05:53:36;97394.84;;;2.36;85.35
10470;BME280;5282;47.052;15.458;2023-04-07T05:56:04;97389.66;;;2.45;85.30
10470;BME280;5282;47.052;15.458;2023-04-07T05:58:31;97395.94;;;2.56;82.97
10470;BME280;5282;47.052;15.458;2023-04-07T06:00:58;97398.00;;;2.64;79.65
10470;BME280;5282;47.052;15.458;2023-04-07T06:03:27;97391.59;;;2.66;78.51
10470;BME280;5282;47.052;15.458;2023-04-07T06:05:57;97387.97;;;2.67;78.78
10470;BME280;5282;47.052;15.458;2023-04-07T06:08:25;97389.66;;;2.68;79.92
10470;BME280;5282;47.052;15.458;2023-04-07T06:10:51;97392.53;;;2.65;80.33
10470;BME280;5282;47.052;15.458;2023-04-07T06:13:19;97386.03;;;2.69;80.11
10470;BME280;5282;47.052;15.458;2023-04-07T06:15:45;97387.59;;;2.72;81.20
10470;BME280;5282;47.052;15.458;2023-04-07T06:18:13;97393.50;;;2.75;80.73
10470;BME280;5282;47.052;15.458;2023-04-07T06:20:41;97394.25;;;2.66;82.71
10470;BME280;5282;47.052;15.458;2023-04-07T06:23:08;97386.09;;;2.90;79.90
10470;BME280;5282;47.052;15.458;2023-04-07T06:25:35;97387.69;;;3.04;78.41
10470;BME280;5282;47.052;15.458;2023-04-07T06:28:05;97390.56;;;3.13;78.03
10470;BME280;5282;47.052;15.458;2023-04-07T06:30:33;97383.75;;;3.20;76.40
10470;BME280;5282;47.052;15.458;2023-04-07T06:32:59;97384.47;;;3.22;76.27
10470;BME280;5282;47.052;15.458;2023-04-07T06:35:26;97379.72;;;3.37;76.63
10470;BME280;5282;47.052;15.458;2023-04-07T06:37:55;97381.47;;;3.59;74.72
10470;BME280;5282;47.052;15.458;2023-04-07T06:40:22;97377.88;;;3.70;70.65
10470;BME280;5282;47.052;15.458;2023-04-07T06:42:49;97382.44;;;3.58;72.27
10470;BME280;5282;47.052;15.458;2023-04-07T06:45:18;97380.81;;;3.88;70.61
10470;BME280;5282;47.052;15.458;2023-04-07T06:47:45;97378.09;;;3.99;70.58
10470;BME280;5282;47.052;15.458;2023-04-07T06:50:12;97378.63;;;4.14;67.94
10470;BME280;5282;47.052;15.458;2023-04-07T06:52:39;97371.16;;;4.29;66.01
10470;BME280;5282;47.052;15.458;2023-04-07T06:55:08;97379.56;;;4.35;67.29
10470;BME280;5282;47.052;15.458;2023-04-07T06:57:36;97375.03;;;4.25;66.89
10470;BME280;5282;47.052;15.458;2023-04-07T07:00:03;97372.75;;;4.42;67.94
10470;BME280;5282;47.052;15.458;2023-04-07T07:02:32;97371.41;;;4.88;62.34
10470;BME280;5282;47.052;15.458;2023-04-07T07:05:00;97368.75;;;4.98;60.46
10470;BME280;5282;47.052;15.458;2023-04-07T07:07:28;97368.06;;;5.06;59.43
10470;BME280;5282;47.052;15.458;2023-04-07T07:09:55;97366.41;;;5.15;59.66
10470;BME280;5282;47.052;15.458;2023-04-07T07:12:23;97363.63;;;5.26;58.84
10470;BME280;5282;47.052;15.458;2023-04-07T07:14:50;97363.88;;;5.23;56.14
10470;BME280;5282;47.052;15.458;2023-04-07T07:17:19;97356.88;;;5.32;57.59
10470;BME280;5282;47.052;15.458;2023-04-07T07:19:47;97365.34;;;5.56;58.30
10470;BME280;5282;47.052;15.458;2023-04-07T07:22:14;97369.41;;;5.70;54.50
10470;BME280;5282;47.052;15.458;2023-04-07T07:24:41;97361.91;;;5.94;54.10
10470;BME280;5282;47.052;15.458;2023-04-07T07:27:10;97364.78;;;6.02;54.00
10470;BME280;5282;47.052;15.458;2023-04-07T07:29:38;97356.25;;;6.36;53.82
10470;BME280;5282;47.052;15.458;2023-04-07T07:32:05;97356.47;;;6.53;53.40
10470;BME280;5282;47.052;15.458;2023-04-07T07:34:32;97360.13;;;6.52;54.69
10470;BME280;5282;47.052;15.458;2023-04-07T07:36:59;97358.38;;;6.70;53.78
10470;BME280;5282;47.052;15.458;2023-04-07T07:39:26;97360.06;;;6.71;51.57
10470;BME280;5282;47.052;15.458;2023-04-07T07:41:54;97358.78;;;7.03;51.29
10470;BME280;5282;47.052;15.458;2023-04-07T07:44:21;97355.97;;;7.23;49.98
10470;BME280;5282;47.052;15.458;2023-04-07T07:46:50;97349.13;;;7.56;48.64
10470;BME280;5282;47.052;15.458;2023-04-07T07:49:17;97343.38;;;7.69;48.80
10470;BME280;5282;47.052;15.458;2023-04-07T07:51:44;97351.56;;;7.86;47.55
10470;BME280;5282;47.052;15.458;2023-04-07T07:54:11;97342.88;;;7.92;45.60
10470;BME280;5282;47.052;15.458;2023-04-07T07:56:38;97338.94;;;8.23;45.28
10470;BME280;5282;47.052;15.458;2023-04-07T07:59:05;97344.75;;;8.44;44.01
10470;BME280;5282;47.052;15.458;2023-04-07T08:01:32;97342.34;;;8.59;43.08
10470;BME280;5282;47.052;15.458;2023-04-07T08:04:01;97341.03;;;8.37;42.67
10470;BME280;5282;47.052;15.458;2023-04-07T08:06:28;97342.00;;;8.54;42.29
10470;BME280;5282;47.052;15.458;2023-04-07T08:08:57;97328.16;;;8.75;41.98
10470;BME280;5282;47.052;15.458;2023-04-07T08:11:24;97334.81;;;8.98;39.15
10470;BME280;5282;47.052;15.458;2023-04-07T08:13:51;97333.00;;;9.06;38.36
10470;BME280;5282;47.052;15.458;2023-04-07T08:16:19;97325.69;;;9.41;36.19
10470;BME280;5282;47.052;15.458;2023-04-07T08:18:46;97327.22;;;9.52;33.40
10470;BME280;5282;47.052;15.458;2023-04-07T08:21:14;97327.19;;;9.36;33.84
10470;BME280;5282;47.052;15.458;2023-04-07T08:23:41;97322.97;;;9.25;34.71
10470;BME280;5282;47.052;15.458;2023-04-07T08:26:09;97321.97;;;9.34;33.39
10470;BME280;5282;47.052;15.458;2023-04-07T08:28:38;97307.41;;;9.62;33.91
10470;BME280;5282;47.052;15.458;2023-04-07T08:31:06;97318.16;;;9.86;31.88
10470;BME280;5282;47.052;15.458;2023-04-07T08:33:33;97319.50;;;9.74;32.21
10470;BME280;5282;47.052;15.458;2023-04-07T08:36:07;97311.47;;;9.82;33.77
10470;BME280;5282;47.052;15.458;2023-04-07T08:38:35;97313.63;;;9.87;34.12
10470;BME280;5282;47.052;15.458;2023-04-07T08:41:05;97308.94;;;9.72;33.51
10470;BME280;5282;47.052;15.458;2023-04-07T08:43:34;97307.59;;;9.85;33.00
10470;BME280;5282;47.052;15.458;2023-04-07T08:46:01;97305.66;;;10.35;32.04
10470;BME280;5282;47.052;15.458;2023-04-07T08:48:29;97298.63;;;10.09;31.40
10470;BME280;5282;47.052;15.458;2023-04-07T08:50:59;97299.19;;;9.88;30.40
10470;BME280;5282;47.052;15.458;2023-04-07T08:53:37;97289.41;;;10.12;32.22
10470;BME280;5282;47.052;15.458;2023-04-07T08:56:06;97302.97;;;10.52;30.52
10470;BME280;5282;47.052;15.458;2023-04-07T08:58:35;97283.75;;;10.63;30.11
10470;BME280;5282;47.052;15.458;2023-04-07T09:01:04;97285.16;;;10.82;29.63
10470;BME280;5282;47.052;15.458;2023-04-07T09:03:33;97285.53;;;11.10;29.17
10470;BME280;5282;47.052;15.458;2023-04-07T09:06:00;97282.69;;;11.12;30.30
10470;BME280;5282;47.052;15.458;2023-04-07T09:08:27;97277.25;;;11.44;29.64
10470;BME280;5282;47.052;15.458;2023-04-07T09:10:57;97278.44;;;11.41;28.83
10470;BME280;5282;47.052;15.458;2023-04-07T09:13:24;97277.44;;;11.10;27.64
10470;BME280;5282;47.052;15.458;2023-04-07T09:15:51;97283.59;;;10.96;28.38
10470;BME280;5282;47.052;15.458;2023-04-07T09:18:18;97274.53;;;11.20;28.33
10470;BME280;5282;47.052;15.458;2023-04-07T09:20:59;97274.53;;;11.90;27.66
10470;BME280;5282;47.052;15.458;2023-04-07T09:23:28;97274.03;;;11.86;28.61
10470;BME280;5282;47.052;15.458;2023-04-07T09:25:57;97268.22;;;11.60;28.67
10470;BME280;5282;47.052;15.458;2023-04-07T09:28:39;97274.31;;;11.53;27.76
10470;BME280;5282;47.052;15.458;2023-04-07T09:31:06;97262.34;;;11.94;27.90
10470;BME280;5282;47.052;15.458;2023-04-07T09:33:33;97272.50;;;11.69;27.94
10470;BME280;5282;47.052;15.458;2023-04-07T09:36:01;97258.38;;;11.67;28.07
10470;BME280;5282;47.052;15.458;2023-04-07T09:38:33;97267.00;;;11.62;28.17
10470;BME280;5282;47.052;15.458;2023-04-07T09:41:09;97269.28;;;11.73;27.69
10470;BME280;5282;47.052;15.458;2023-04-07T09:43:37;97258.88;;;11.47;27.69
10470;BME280;5282;47.052;15.458;2023-04-07T09:46:10;97257.03;;;11.86;27.19
10470;BME280;5282;47.052;15.458;2023-04-07T09:48:37;97261.47;;;12.02;28.47
10470;BME280;5282;47.052;15.458;2023-04-07T09:51:06;97253.22;;;12.33;27.90
10470;BME280;5282;47.052;15.458;2023-04-07T09:53:45;97249.75;;;12.70;26.19
10470;BME280;5282;47.052;15.458;2023-04-07T09:56:15;97249.94;;;12.53;26.77
10470;BME280;5282;47.052;15.458;2023-04-07T09:58:44;97244.63;;;12.75;26.40
10470;BME280;5282;47.052;15.458;2023-04-07T10:01:13;97241.81;;;12.83;26.68
10470;BME280;5282;47.052;15.458;2023-04-07T10:03:41;97246.59;;;12.21;25.91
10470;BME280;5282;47.052;15.458;2023-04-07T10:06:08;97245.00;;;12.72;25.56
10470;BME280;5282;47.052;15.458;2023-04-07T10:08:37;97247.06;;;12.70;25.27
10470;BME280;5282;47.052;15.458;2023-04-07T10:11:05;97241.75;;;13.13;26.19
10470;BME280;5282;47.052;15.458;2023-04-07T10:13:36;97238.19;;;13.71;26.24
10470;BME280;5282;47.052;15.458;2023-04-07T10:16:04;97234.31;;;13.37;24.91
10470;BME280;5282;47.052;15.458;2023-04-07T10:18:33;97233.38;;;13.45;24.68
10470;BME280;5282;47.052;15.458;2023-04-07T10:21:02;97225.81;;;13.83;25.65
10470;BME280;5282;47.052;15.458;2023-04-07T10:23:36;97222.19;;;13.76;24.95
10470;BME280;5282;47.052;15.458;2023-04-07T10:26:07;97227.28;;;13.86;24.53
10470;BME280;5282;47.052;15.458;2023-04-07T10:28:37;97225.97;;;14.10;24.06
10470;BME280;5282;47.052;15.458;2023-04-07T10:31:08;97223.44;;;14.02;25.34
10470;BME280;5282;47.052;15.458;2023-04-07T10:33:44;97223.09;;;14.12;24.63
10470;BME280;5282;47.052;15.458;2023-04-07T10:36:12;97215.22;;;14.59;24.42
10470;BME280;5282;47.052;15.458;2023-04-07T10:38:39;97214.13;;;14.46;24.60
10470;BME280;5282;47.052;15.458;2023-04-07T10:41:32;97207.75;;;14.26;24.58
10470;BME280;5282;47.052;15.458;2023-04-07T10:44:01;97213.78;;;14.21;24.13
10470;BME280;5282;47.052;15.458;2023-04-07T10:47:02;97216.75;;;14.26;23.94
10470;BME280;5282;47.052;15.458;2023-04-07T10:49:29;97202.91;;;14.91;23.44
10470;BME280;5282;47.052;15.458;2023-04-07T10:52:20;97202.53;;;15.15;23.36
10470;BME280;5282;47.052;15.458;2023-04-07T10:58:18;97194.38;;;15.01;23.25
10470;BME280;5282;47.052;15.458;2023-04-07T11:01:19;97200.81;;;14.93;22.95
10470;BME280;5282;47.052;15.458;2023-04-07T11:03:54;97196.88;;;14.96;23.85
10470;BME280;5282;47.052;15.458;2023-04-07T11:06:22;97200.16;;;14.85;23.06
10470;BME280;5282;47.052;15.458;2023-04-07T11:08:49;97196.63;;;14.91;22.86
10470;BME280;5282;47.052;15.458;2023-04-07T11:11:34;97196.03;;;15.02;23.20
10470;BME280;5282;47.052;15.458;2023-04-07T11:14:03;97192.06;;;14.91;23.31
10470;BME280;5282;47.052;15.458;2023-04-07T11:16:38;97185.47;;;15.34;22.68
10470;BME280;5282;47.052;15.458;2023-04-07T11:19:05;97185.81;;;14.98;23.02
10470;BME280;5282;47.052;15.458;2023-04-07T11:21:35;97175.25;;;15.50;22.96
10470;BME280;5282;47.052;15.458;2023-04-07T11:24:02;97168.59;;;15.46;23.12
10470;BME280;5282;47.052;15.458;2023-04-07T11:26:41;97177.94;;;15.36;22.99
10470;BME280;5282;47.052;15.458;2023-04-07T11:29:08;97172.97;;;16.14;23.11
10470;BME280;5282;47.052;15.458;2023-04-07T11:31:38;97176.09;;;15.97;22.30
10470;BME280;5282;47.052;15.458;2023-04-07T11:34:04;97167.44;;;16.41;22.11
10470;BME280;5282;47.052;15.458;2023-04-07T11:36:33;97175.16;;;16.44;21.14
10470;BME280;5282;47.052;15.458;2023-04-07T11:39:01;97168.53;;;16.26;22.60
10470;BME280;5282;47.052;15.458;2023-04-07T11:41:31;97173.81;;;16.73;23.28
10470;BME280;5282;47.052;15.458;2023-04-07T11:44:06;97165.81;;;16.85;21.15
10470;BME280;5282;47.052;15.458;2023-04-07T11:46:34;97167.88;;;17.61;21.08
10470;BME280;5282;47.052;15.458;2023-04-07T11:49:10;97164.88;;;17.94;20.44
10470;BME280;5282;47.052;15.458;2023-04-07T11:51:37;97160.78;;;17.78;20.64
10470;BME280;5282;47.052;15.458;2023-04-07T11:54:04;97162.09;;;16.79;20.36
10470;BME280;5282;47.052;15.458;2023-04-07T11:56:41;97147.69;;;17.43;21.42
10470;BME280;5282;47.052;15.458;2023-04-07T11:59:08;97151.78;;;17.27;21.56
10470;BME280;5282;47.052;15.458;2023-04-07T12:01:44;97145.88;;;17.05;20.87
10470;BME280;5282;47.052;15.458;2023-04-07T12:04:14;97146.34;;;17.27;19.88
10470;BME280;5282;47.052;15.458;2023-04-07T12:06:42;97138.91;;;18.17;19.89
10470;BME280;5282;47.052;15.458;2023-04-07T12:09:27;97141.03;;;18.83;20.67
10470;BME280;5282;47.052;15.458;2023-04-07T12:11:55;97138.66;;;19.35;19.46
10470;BME280;5282;47.052;15.458;2023-04-07T12:14:23;97133.97;;;17.82;20.29
10470;BME280;5282;47.052;15.458;2023-04-07T12:16:50;97136.75;;;18.56;19.10
10470;BME280;5282;47.052;15.458;2023-04-07T12:19:18;97129.34;;;18.63;19.58
10470;BME280;5282;47.052;15.458;2023-04-07T12:21:45;97128.13;;;18.41;19.65
10470;BME280;5282;47.052;15.458;2023-04-07T12:24:12;97124.13;;;18.25;21.81
10470;BME280;5282;47.052;15.458;2023-04-07T12:26:39;97120.81;;;19.21;19.54
10470;BME280;5282;47.052;15.458;2023-04-07T12:29:06;97124.06;;;18.99;19.11
10470;BME280;5282;47.052;15.458;2023-04-07T12:31:33;97114.94;;;19.48;20.61
10470;BME280;5282;47.052;15.458;2023-04-07T12:34:01;97120.88;;;19.45;21.36
10470;BME280;5282;47.052;15.458;2023-04-07T12:36:30;97122.66;;;19.63;19.58
10470;BME280;5282;47.052;15.458;2023-04-07T12:38:57;97114.59;;;20.15;19.10
10470;BME280;5282;47.052;15.458;2023-04-07T12:41:24;97107.75;;;20.01;19.40
10470;BME280;5282;47.052;15.458;2023-04-07T12:43:52;97114.03;;;20.01;18.92
10470;BME280;5282;47.052;15.458;2023-04-07T12:46:19;97110.72;;;19.99;18.62
10470;BME280;5282;47.052;15.458;2023-04-07T12:48:46;97115.19;;;19.82;18.51
10470;BME280;5282;47.052;15.458;2023-04-07T12:51:13;97115.44;;;19.68;17.70
10470;BME280;5282;47.052;15.458;2023-04-07T12:53:42;97121.81;;;19.62;18.72
10470;BME280;5282;47.052;15.458;2023-04-07T12:56:09;97123.25;;;19.77;17.20
10470;BME280;5282;47.052;15.458;2023-04-07T12:58:38;97109.22;;;19.37;17.89
10470;BME280;5282;47.052;15.458;2023-04-07T13:01:05;97112.63;;;18.41;18.75
10470;BME280;5282;47.052;15.458;2023-04-07T13:03:32;97116.09;;;18.67;18.61
10470;BME280;5282;47.052;15.458;2023-04-07T13:05:59;97114.19;;;18.68;18.37
10470;BME280;5282;47.052;15.458;2023-04-07T13:08:27;97118.72;;;18.74;18.84
10470;BME280;5282;47.052;15.458;2023-04-07T13:10:56;97123.47;;;17.35;20.40
10470;BME280;5282;47.052;15.458;2023-04-07T13:13:23;97116.09;;;17.42;21.77
10470;BME280;5282;47.052;15.458;2023-04-07T13:15:50;97119.59;;;17.49;21.16
10470;BME280;5282;47.052;15.458;2023-04-07T13:18:17;97119.94;;;17.60;20.07
10470;BME280;5282;47.052;15.458;2023-04-07T13:20:45;97115.41;;;17.72;21.49